Manila Express — VRCX7 — position and weather

sailwx.info

Track history (hours):
 
Tides and Currents Weather Stations Pressure Air Temp Water Temp Dewpoint Dewpoint Depression Visibility Wind Speed Wind Dir Waves Ship Positions

Manila Express

Last reported at 2016-Sep-19 06:33 UTC. Time now 2016-Sep-29 05:06 UTC.
Position N 36°00' W 013°40'.
Warning: this ship's position is 9 days out of date.

Length 260 m; draft 12.5 m.

Type: Ship (hazmat cat A). MMSI: 477830800.

Date/timePositionNaut miles runAvg speedWind from/ knotsBaromVisibWave heightAir tempDewpointWater temp
2016-Sep-19 06:33N 36°00' W 013°40'5117.0
2016-Sep-19 03:33N 36°00' W 012°37'1717.4
2016-Sep-19 02:33N 36°00' W 012°15'11917.0
2016-Sep-18 19:34N 35°60' W 009°48'36716.7
2016-Sep-17 21:33N 36°25' W 002°15'1716.6
2016-Sep-17 20:32N 36°36' W 001°58'11816.6
2016-Sep-17 13:28N 37°59' W 000°14'8513.9
2016-Sep-17 07:21N 39°24' W 000°16'4 2.0
2016-Sep-17 05:30N 39°27' W 000°19'0 0.0
2016-Sep-17 04:33N 39°27' W 000°19'0 0.0
2016-Sep-17 00:33N 39°27' W 000°19'0 0.0
2016-Sep-16 17:33N 39°27' W 000°19'0 0.0
2016-Sep-16 15:33N 39°27' W 000°19'0 0.0
2016-Sep-16 12:33N 39°27' W 000°19'6 1.9
2016-Sep-16 09:33N 39°25' W 000°12'10918.2
2016-Sep-16 03:33N 40°36' E 001°36'2019.8
2016-Sep-16 02:33N 40°52' E 001°50'285 8.6
2016-Sep-14 17:34N 43°18' E 007°20'1615.9
2016-Sep-14 16:34N 43°29' E 007°37'4816.0
2016-Sep-14 13:34N 44°00' E 008°27'1615.5
2016-Sep-14 12:33N 44°14' E 008°37'13 6.6
2016-Sep-14 10:33N 44°25' E 008°47'0 0.0
2016-Sep-14 09:33N 44°25' E 008°47'0 0.0
2016-Sep-14 08:33N 44°25' E 008°47'0 0.0
2016-Sep-14 07:33N 44°25' E 008°47'0 0.0
2016-Sep-14 06:30N 44°25' E 008°47'0 0.0
2016-Sep-14 03:33N 44°25' E 008°47'0 0.0
2016-Sep-13 22:24N 44°25' E 008°47'0 0.0
2016-Sep-13 20:30N 44°25' E 008°47'0 0.0
2016-Sep-13 18:33N 44°25' E 008°47'0 0.0
2016-Sep-13 17:30N 44°25' E 008°47'0 0.0
2016-Sep-13 16:33N 44°25' E 008°47'0 0.0
2016-Sep-13 11:30N 44°25' E 008°47'6 3.1
2016-Sep-13 09:33N 44°20' E 008°43'7 3.4
2016-Sep-13 07:33N 44°13' E 008°42'0 0.0
2016-Sep-13 06:34N 44°13' E 008°42'1 0.3
2016-Sep-13 04:33N 44°13' E 008°42'0 0.1
2016-Sep-13 02:34N 44°13' E 008°42'22 7.3
2016-Sep-12 23:34N 44°04' E 009°10'2311.5
2016-Sep-12 21:34N 43°48' E 009°33'2311.5
2016-Sep-12 19:34N 43°33' E 009°56'16 8.0
2016-Sep-12 17:33N 43°34' E 010°18'0 0.0
2016-Sep-12 14:31N 43°34' E 010°18'0 0.0
2016-Sep-12 13:31N 43°34' E 010°18'0 0.0
2016-Sep-12 12:31N 43°34' E 010°18'0 0.0
2016-Sep-12 11:31N 43°34' E 010°18'0 0.0
2016-Sep-12 10:31N 43°34' E 010°18'0 0.0
2016-Sep-12 07:31N 43°34' E 010°18'0 0.0
2016-Sep-12 06:31N 43°34' E 010°18'0 0.0
2016-Sep-12 03:31N 43°34' E 010°18'0 0.0
2016-Sep-12 01:31N 43°34' E 010°18'0 0.0
2016-Sep-11 23:31N 43°34' E 010°18'0 0.0
2016-Sep-11 22:28N 43°34' E 010°18'0 0.0
2016-Sep-11 21:31N 43°34' E 010°18'0 0.0
2016-Sep-11 20:31N 43°34' E 010°18'0 0.0
2016-Sep-11 19:31N 43°34' E 010°18'0 0.0
2016-Sep-11 18:31N 43°34' E 010°18'0 0.0
2016-Sep-11 17:31N 43°34' E 010°18'0 0.0
2016-Sep-11 16:31N 43°34' E 010°18'3 2.7
2016-Sep-11 15:33N 43°32' E 010°17'1010.4
2016-Sep-11 14:34N 43°23' E 010°11'1313.3
2016-Sep-11 13:33N 43°10' E 010°05'1313.2
2016-Sep-11 12:33N 42°57' E 009°59'1313.2
2016-Sep-11 11:34N 42°45' E 009°54'1713.7
2016-Sep-11 10:20N 42°28' E 009°51'2614.5
2016-Sep-11 08:33N 42°03' E 009°54'1514.5
2016-Sep-11 07:33N 41°48' E 009°56'16514.9
2016-Sep-10 20:31N 39°04' E 009°42'1212.4
2016-Sep-10 19:33N 38°57' E 009°29'1313.5
2016-Sep-10 18:33N 39°02' E 009°13'1312.4
2016-Sep-10 17:32N 39°13' E 009°04'0 0.0
2016-Sep-10 16:31N 39°13' E 009°04'0 0.0
2016-Sep-10 15:31N 39°13' E 009°04'0 0.0
2016-Sep-10 14:31N 39°13' E 009°04'0 0.0
2016-Sep-10 13:31N 39°13' E 009°04'0 0.0
2016-Sep-10 12:31N 39°13' E 009°04'0 0.0
2016-Sep-10 11:25N 39°13' E 009°04'0 0.0
2016-Sep-10 10:31N 39°13' E 009°04'0 0.0
2016-Sep-10 09:31N 39°13' E 009°04'0 0.0
2016-Sep-10 08:31N 39°13' E 009°04'0 0.0
2016-Sep-10 07:31N 39°13' E 009°04'0 0.0
2016-Sep-10 06:31N 39°13' E 009°04'0 0.0
2016-Sep-10 05:31N 39°13' E 009°04'0 0.0
2016-Sep-10 04:31N 39°13' E 009°04'0 0.0
2016-Sep-10 03:31N 39°13' E 009°04'0 0.0
2016-Sep-10 02:31N 39°13' E 009°04'0 0.0
2016-Sep-10 01:31N 39°13' E 009°04'0 0.0
2016-Sep-10 00:31N 39°13' E 009°04'0 0.0
2016-Sep-09 23:31N 39°13' E 009°04'0 0.0
2016-Sep-09 22:31N 39°13' E 009°04'0 0.0
2016-Sep-09 21:31N 39°13' E 009°04'0 0.0
2016-Sep-09 20:31N 39°13' E 009°04'0 0.0
2016-Sep-09 19:31N 39°13' E 009°04'0 0.0
2016-Sep-09 18:31N 39°13' E 009°04'0 0.0
2016-Sep-09 17:31N 39°13' E 009°04'0 0.0
2016-Sep-09 16:31N 39°13' E 009°04'0 0.4
2016-Sep-09 15:33N 39°13' E 009°04'7 6.8
2016-Sep-09 14:33N 39°07' E 009°06'1716.6
2016-Sep-09 13:32N 38°50' E 009°04'1716.7
2016-Sep-09 12:30N 38°38' E 008°47'1917.7
2016-Sep-09 11:26N 38°32' E 008°24'  
Track history (hours):
 
Tides and Currents Weather Stations Pressure Air Temp Water Temp Dewpoint Dewpoint Depression Visibility Wind Speed Wind Dir Waves Ship Positions

Manila Express

Last reported at 2016-Sep-19 06:33 UTC. Time now 2016-Sep-29 05:06 UTC.
Position N 36°00' W 013°40'.
Warning: this ship's position is 9 days out of date.

Length 260 m; draft 12.5 m.

Type: Ship (hazmat cat A). MMSI: 477830800.

Date/timePositionNaut miles runAvg speedWind from/ knotsBaromVisibWave heightAir tempDewpointWater temp
2016-Sep-19 06:33N 36°00' W 013°40'5117.0
2016-Sep-19 03:33N 36°00' W 012°37'1717.4
2016-Sep-19 02:33N 36°00' W 012°15'11917.0
2016-Sep-18 19:34N 35°60' W 009°48'36716.7
2016-Sep-17 21:33N 36°25' W 002°15'1716.6
2016-Sep-17 20:32N 36°36' W 001°58'11816.6
2016-Sep-17 13:28N 37°59' W 000°14'8513.9
2016-Sep-17 07:21N 39°24' W 000°16'4 2.0
2016-Sep-17 05:30N 39°27' W 000°19'0 0.0
2016-Sep-17 04:33N 39°27' W 000°19'0 0.0
2016-Sep-17 00:33N 39°27' W 000°19'0 0.0
2016-Sep-16 17:33N 39°27' W 000°19'0 0.0
2016-Sep-16 15:33N 39°27' W 000°19'0 0.0
2016-Sep-16 12:33N 39°27' W 000°19'6 1.9
2016-Sep-16 09:33N 39°25' W 000°12'10918.2
2016-Sep-16 03:33N 40°36' E 001°36'2019.8
2016-Sep-16 02:33N 40°52' E 001°50'285 8.6
2016-Sep-14 17:34N 43°18' E 007°20'1615.9
2016-Sep-14 16:34N 43°29' E 007°37'4816.0
2016-Sep-14 13:34N 44°00' E 008°27'1615.5
2016-Sep-14 12:33N 44°14' E 008°37'13 6.6
2016-Sep-14 10:33N 44°25' E 008°47'0 0.0
2016-Sep-14 09:33N 44°25' E 008°47'0 0.0
2016-Sep-14 08:33N 44°25' E 008°47'0 0.0
2016-Sep-14 07:33N 44°25' E 008°47'0 0.0
2016-Sep-14 06:30N 44°25' E 008°47'0 0.0
2016-Sep-14 03:33N 44°25' E 008°47'0 0.0
2016-Sep-13 22:24N 44°25' E 008°47'0 0.0
2016-Sep-13 20:30N 44°25' E 008°47'0 0.0
2016-Sep-13 18:33N 44°25' E 008°47'0 0.0
2016-Sep-13 17:30N 44°25' E 008°47'0 0.0
2016-Sep-13 16:33N 44°25' E 008°47'0 0.0
2016-Sep-13 11:30N 44°25' E 008°47'6 3.1
2016-Sep-13 09:33N 44°20' E 008°43'7 3.4
2016-Sep-13 07:33N 44°13' E 008°42'0 0.0
2016-Sep-13 06:34N 44°13' E 008°42'1 0.3
2016-Sep-13 04:33N 44°13' E 008°42'0 0.1
2016-Sep-13 02:34N 44°13' E 008°42'22 7.3
2016-Sep-12 23:34N 44°04' E 009°10'2311.5
2016-Sep-12 21:34N 43°48' E 009°33'2311.5
2016-Sep-12 19:34N 43°33' E 009°56'16 8.0
2016-Sep-12 17:33N 43°34' E 010°18'0 0.0
2016-Sep-12 14:31N 43°34' E 010°18'0 0.0
2016-Sep-12 13:31N 43°34' E 010°18'0 0.0
2016-Sep-12 12:31N 43°34' E 010°18'0 0.0
2016-Sep-12 11:31N 43°34' E 010°18'0 0.0
2016-Sep-12 10:31N 43°34' E 010°18'0 0.0
2016-Sep-12 07:31N 43°34' E 010°18'0 0.0
2016-Sep-12 06:31N 43°34' E 010°18'0 0.0
2016-Sep-12 03:31N 43°34' E 010°18'0 0.0
2016-Sep-12 01:31N 43°34' E 010°18'0 0.0
2016-Sep-11 23:31N 43°34' E 010°18'0 0.0
2016-Sep-11 22:28N 43°34' E 010°18'0 0.0
2016-Sep-11 21:31N 43°34' E 010°18'0 0.0
2016-Sep-11 20:31N 43°34' E 010°18'0 0.0
2016-Sep-11 19:31N 43°34' E 010°18'0 0.0
2016-Sep-11 18:31N 43°34' E 010°18'0 0.0
2016-Sep-11 17:31N 43°34' E 010°18'0 0.0
2016-Sep-11 16:31N 43°34' E 010°18'3 2.7
2016-Sep-11 15:33N 43°32' E 010°17'1010.4
2016-Sep-11 14:34N 43°23' E 010°11'1313.3
2016-Sep-11 13:33N 43°10' E 010°05'1313.2
2016-Sep-11 12:33N 42°57' E 009°59'1313.2
2016-Sep-11 11:34N 42°45' E 009°54'1713.7
2016-Sep-11 10:20N 42°28' E 009°51'2614.5
2016-Sep-11 08:33N 42°03' E 009°54'1514.5
2016-Sep-11 07:33N 41°48' E 009°56'16514.9
2016-Sep-10 20:31N 39°04' E 009°42'1212.4
2016-Sep-10 19:33N 38°57' E 009°29'1313.5
2016-Sep-10 18:33N 39°02' E 009°13'1312.4
2016-Sep-10 17:32N 39°13' E 009°04'0 0.0
2016-Sep-10 16:31N 39°13' E 009°04'0 0.0
2016-Sep-10 15:31N 39°13' E 009°04'0 0.0
2016-Sep-10 14:31N 39°13' E 009°04'0 0.0
2016-Sep-10 13:31N 39°13' E 009°04'0 0.0
2016-Sep-10 12:31N 39°13' E 009°04'0 0.0
2016-Sep-10 11:25N 39°13' E 009°04'0 0.0
2016-Sep-10 10:31N 39°13' E 009°04'0 0.0
2016-Sep-10 09:31N 39°13' E 009°04'0 0.0
2016-Sep-10 08:31N 39°13' E 009°04'0 0.0
2016-Sep-10 07:31N 39°13' E 009°04'0 0.0
2016-Sep-10 06:31N 39°13' E 009°04'0 0.0
2016-Sep-10 05:31N 39°13' E 009°04'0 0.0
2016-Sep-10 04:31N 39°13' E 009°04'0 0.0
2016-Sep-10 03:31N 39°13' E 009°04'0 0.0
2016-Sep-10 02:31N 39°13' E 009°04'0 0.0
2016-Sep-10 01:31N 39°13' E 009°04'0 0.0
2016-Sep-10 00:31N 39°13' E 009°04'0 0.0
2016-Sep-09 23:31N 39°13' E 009°04'0 0.0
2016-Sep-09 22:31N 39°13' E 009°04'0 0.0
2016-Sep-09 21:31N 39°13' E 009°04'0 0.0
2016-Sep-09 20:31N 39°13' E 009°04'0 0.0
2016-Sep-09 19:31N 39°13' E 009°04'0 0.0
2016-Sep-09 18:31N 39°13' E 009°04'0 0.0
2016-Sep-09 17:31N 39°13' E 009°04'0 0.0
2016-Sep-09 16:31N 39°13' E 009°04'0 0.4
2016-Sep-09 15:33N 39°13' E 009°04'7 6.8
2016-Sep-09 14:33N 39°07' E 009°06'1716.6
2016-Sep-09 13:32N 38°50' E 009°04'1716.7
2016-Sep-09 12:30N 38°38' E 008°47'1917.7
2016-Sep-09 11:26N 38°32' E 008°24'  

Dump ship's entire track history